CU-0018 weather

Los Mangos de Baragua Airport
Santiago de Cuba, Cuba

Public forecast

Using degrees Celsius for public forecast. Weather courtesy of forecast.io.

Closest aviation weather report (METAR) to Los Mangos de Baragua Airport

Closest report is Frank Pais International Airport, 27.3 nm (50.6 km) NW. Retrieved 2019/12/05 18:50 UTC (22 minutes ago):

MUHG 051850Z VRB12KT 9000 BKN025 27/17 Q1016

Closest aviation forecast (TAF) to Los Mangos de Baragua Airport

Closest forecast is Frank Pais International Airport, 27.3 nm (50.6 km) NW. Retrieved 2019/12/05 18:03 UTC (1 hour ago):

TAF MUHG 051700Z 0518/0618 03010KT 9000 BKN020 BECMG 0600/0602 VRB03KT SCT020 BECMG 0615/0617 05010KT